sensor_id;sensor_type;location;lat;lon;timestamp;temperature;humidity
59301;DHT22;45073;52.740;6.784;2023-04-24T00:02:04;11.10;99.90
59301;DHT22;45073;52.740;6.784;2023-04-24T00:04:32;11.00;99.90
59301;DHT22;45073;52.740;6.784;2023-04-24T00:06:57;11.00;99.90
59301;DHT22;45073;52.740;6.784;2023-04-24T00:09:25;10.90;99.90
59301;DHT22;45073;52.740;6.784;2023-04-24T00:11:52;10.90;99.90
59301;DHT22;45073;52.740;6.784;2023-04-24T00:14:18;10.80;99.90
59301;DHT22;45073;52.740;6.784;2023-04-24T00:16:43;10.80;99.90
59301;DHT22;45073;52.740;6.784;2023-04-24T00:19:09;10.70;99.90
59301;DHT22;45073;52.740;6.784;2023-04-24T00:21:34;10.70;99.90
59301;DHT22;45073;52.740;6.784;2023-04-24T00:24:00;10.70;99.90
59301;DHT22;45073;52.740;6.784;2023-04-24T00:26:26;10.60;99.90
59301;DHT22;45073;52.740;6.784;2023-04-24T00:28:51;10.60;99.90
59301;DHT22;45073;52.740;6.784;2023-04-24T00:31:17;10.60;99.90
59301;DHT22;45073;52.740;6.784;2023-04-24T00:33:43;10.60;99.90
59301;DHT22;45073;52.740;6.784;2023-04-24T00:36:09;10.50;99.90
59301;DHT22;45073;52.740;6.784;2023-04-24T00:38:34;10.50;99.90
59301;DHT22;45073;52.740;6.784;2023-04-24T00:41:00;10.50;99.90
59301;DHT22;45073;52.740;6.784;2023-04-24T00:43:26;10.40;99.90
59301;DHT22;45073;52.740;6.784;2023-04-24T00:45:51;10.30;99.90
59301;DHT22;45073;52.740;6.784;2023-04-24T00:48:17;10.30;99.90
59301;DHT22;45073;52.740;6.784;2023-04-24T00:50:43;10.30;99.90
59301;DHT22;45073;52.740;6.784;2023-04-24T00:53:09;10.20;99.90
59301;DHT22;45073;52.740;6.784;2023-04-24T00:55:35;10.20;99.90
59301;DHT22;45073;52.740;6.784;2023-04-24T00:58:02;10.10;99.90
59301;DHT22;45073;52.740;6.784;2023-04-24T01:00:29;10.10;99.90
59301;DHT22;45073;52.740;6.784;2023-04-24T01:02:58;10.10;99.90
59301;DHT22;45073;52.740;6.784;2023-04-24T01:05:24;10.10;99.90
59301;DHT22;45073;52.740;6.784;2023-04-24T01:07:50;10.10;99.90
59301;DHT22;45073;52.740;6.784;2023-04-24T01:10:16;10.00;99.90
59301;DHT22;45073;52.740;6.784;2023-04-24T01:12:43;10.00;99.90
59301;DHT22;45073;52.740;6.784;2023-04-24T01:15:09;10.00;99.90
59301;DHT22;45073;52.740;6.784;2023-04-24T01:17:35;10.00;99.90
59301;DHT22;45073;52.740;6.784;2023-04-24T01:20:01;9.90;99.90
59301;DHT22;45073;52.740;6.784;2023-04-24T01:22:29;9.90;99.90
59301;DHT22;45073;52.740;6.784;2023-04-24T01:24:55;9.90;99.90
59301;DHT22;45073;52.740;6.784;2023-04-24T01:27:20;9.90;99.90
59301;DHT22;45073;52.740;6.784;2023-04-24T01:29:46;9.90;99.90
59301;DHT22;45073;52.740;6.784;2023-04-24T01:32:14;9.90;99.90
59301;DHT22;45073;52.740;6.784;2023-04-24T01:34:40;9.90;99.90
59301;DHT22;45073;52.740;6.784;2023-04-24T01:37:06;9.90;99.90
59301;DHT22;45073;52.740;6.784;2023-04-24T01:39:32;9.80;99.90
59301;DHT22;45073;52.740;6.784;2023-04-24T01:41:59;9.80;99.90
59301;DHT22;45073;52.740;6.784;2023-04-24T01:44:26;9.80;99.90
59301;DHT22;45073;52.740;6.784;2023-04-24T01:46:52;9.80;99.90
59301;DHT22;45073;52.740;6.784;2023-04-24T01:49:19;9.80;99.90
59301;DHT22;45073;52.740;6.784;2023-04-24T01:51:45;9.80;99.90
59301;DHT22;45073;52.740;6.784;2023-04-24T01:54:11;9.70;99.90
59301;DHT22;45073;52.740;6.784;2023-04-24T01:56:41;9.70;99.90
59301;DHT22;45073;52.740;6.784;2023-04-24T01:59:09;9.80;99.90
59301;DHT22;45073;52.740;6.784;2023-04-24T02:01:36;9.80;99.90
59301;DHT22;45073;52.740;6.784;2023-04-24T02:04:02;9.70;99.90
59301;DHT22;45073;52.740;6.784;2023-04-24T02:06:28;9.70;99.90
59301;DHT22;45073;52.740;6.784;2023-04-24T02:08:54;9.70;99.90
59301;DHT22;45073;52.740;6.784;2023-04-24T02:11:19;9.70;99.90
59301;DHT22;45073;52.740;6.784;2023-04-24T02:13:45;9.70;99.90
59301;DHT22;45073;52.740;6.784;2023-04-24T02:16:10;9.80;99.90
59301;DHT22;45073;52.740;6.784;2023-04-24T02:18:36;9.80;99.90
59301;DHT22;45073;52.740;6.784;2023-04-24T02:21:02;9.80;99.90
59301;DHT22;45073;52.740;6.784;2023-04-24T02:23:27;9.90;99.90
59301;DHT22;45073;52.740;6.784;2023-04-24T02:25:53;9.90;99.90
59301;DHT22;45073;52.740;6.784;2023-04-24T02:28:19;9.90;99.90
59301;DHT22;45073;52.740;6.784;2023-04-24T02:30:45;9.90;99.90
59301;DHT22;45073;52.740;6.784;2023-04-24T02:33:11;9.90;99.90
59301;DHT22;45073;52.740;6.784;2023-04-24T02:35:37;9.90;99.90
59301;DHT22;45073;52.740;6.784;2023-04-24T02:38:03;9.90;99.90
59301;DHT22;45073;52.740;6.784;2023-04-24T02:40:29;9.80;99.90
59301;DHT22;45073;52.740;6.784;2023-04-24T02:42:55;9.80;99.90
59301;DHT22;45073;52.740;6.784;2023-04-24T02:45:20;9.80;99.90
59301;DHT22;45073;52.740;6.784;2023-04-24T02:47:46;9.80;99.90
59301;DHT22;45073;52.740;6.784;2023-04-24T02:50:11;9.80;99.90
59301;DHT22;45073;52.740;6.784;2023-04-24T02:52:37;9.80;99.90
59301;DHT22;45073;52.740;6.784;2023-04-24T02:55:03;9.80;99.90
59301;DHT22;45073;52.740;6.784;2023-04-24T02:57:29;9.80;99.90
59301;DHT22;45073;52.740;6.784;2023-04-24T02:59:54;9.80;99.90
59301;DHT22;45073;52.740;6.784;2023-04-24T03:02:20;9.80;99.90
59301;DHT22;45073;52.740;6.784;2023-04-24T03:04:46;9.80;99.90
59301;DHT22;45073;52.740;6.784;2023-04-24T03:07:13;9.80;99.90
59301;DHT22;45073;52.740;6.784;2023-04-24T03:09:40;9.80;99.90
59301;DHT22;45073;52.740;6.784;2023-04-24T03:12:06;9.70;99.90
59301;DHT22;45073;52.740;6.784;2023-04-24T03:14:31;9.80;99.90
59301;DHT22;45073;52.740;6.784;2023-04-24T03:16:57;9.80;99.90
59301;DHT22;45073;52.740;6.784;2023-04-24T03:19:23;9.80;99.90
59301;DHT22;45073;52.740;6.784;2023-04-24T03:21:49;9.70;99.90
59301;DHT22;45073;52.740;6.784;2023-04-24T03:24:15;9.70;99.90
59301;DHT22;45073;52.740;6.784;2023-04-24T03:26:40;9.70;99.90
59301;DHT22;45073;52.740;6.784;2023-04-24T03:29:06;9.70;99.90
59301;DHT22;45073;52.740;6.784;2023-04-24T03:31:31;9.70;99.90
59301;DHT22;45073;52.740;6.784;2023-04-24T03:33:57;9.60;99.90
59301;DHT22;45073;52.740;6.784;2023-04-24T03:36:23;9.60;99.90
59301;DHT22;45073;52.740;6.784;2023-04-24T03:38:48;9.50;99.90
59301;DHT22;45073;52.740;6.784;2023-04-24T03:41:14;9.60;99.90
59301;DHT22;45073;52.740;6.784;2023-04-24T03:43:39;9.60;99.90
59301;DHT22;45073;52.740;6.784;2023-04-24T03:46:05;9.50;99.90
59301;DHT22;45073;52.740;6.784;2023-04-24T03:48:31;9.50;99.90
59301;DHT22;45073;52.740;6.784;2023-04-24T03:50:56;9.50;99.90
59301;DHT22;45073;52.740;6.784;2023-04-24T03:53:22;9.60;99.90
59301;DHT22;45073;52.740;6.784;2023-04-24T03:55:48;9.60;99.90
59301;DHT22;45073;52.740;6.784;2023-04-24T03:58:13;9.60;99.90
59301;DHT22;45073;52.740;6.784;2023-04-24T04:00:40;9.60;99.90
59301;DHT22;45073;52.740;6.784;2023-04-24T04:03:06;9.60;99.90
59301;DHT22;45073;52.740;6.784;2023-04-24T04:05:31;9.60;99.90
59301;DHT22;45073;52.740;6.784;2023-04-24T04:07:57;9.60;99.90
59301;DHT22;45073;52.740;6.784;2023-04-24T04:10:23;9.50;99.90
59301;DHT22;45073;52.740;6.784;2023-04-24T04:12:48;9.50;99.90
59301;DHT22;45073;52.740;6.784;2023-04-24T04:15:14;9.50;99.90
59301;DHT22;45073;52.740;6.784;2023-04-24T04:17:40;9.50;99.90
59301;DHT22;45073;52.740;6.784;2023-04-24T04:20:06;9.60;99.90
59301;DHT22;45073;52.740;6.784;2023-04-24T04:22:34;9.50;99.90
59301;DHT22;45073;52.740;6.784;2023-04-24T04:25:00;9.50;99.90
59301;DHT22;45073;52.740;6.784;2023-04-24T04:27:26;9.50;99.90
59301;DHT22;45073;52.740;6.784;2023-04-24T04:29:52;9.50;99.90
59301;DHT22;45073;52.740;6.784;2023-04-24T04:32:18;9.50;99.90
59301;DHT22;45073;52.740;6.784;2023-04-24T04:34:43;9.50;99.90
59301;DHT22;45073;52.740;6.784;2023-04-24T04:37:11;9.50;99.90
59301;DHT22;45073;52.740;6.784;2023-04-24T04:39:38;9.50;99.90
59301;DHT22;45073;52.740;6.784;2023-04-24T04:42:03;9.50;99.90
59301;DHT22;45073;52.740;6.784;2023-04-24T04:44:29;9.50;99.90
59301;DHT22;45073;52.740;6.784;2023-04-24T04:46:56;9.50;99.90
59301;DHT22;45073;52.740;6.784;2023-04-24T04:49:22;9.50;99.90
59301;DHT22;45073;52.740;6.784;2023-04-24T04:51:49;9.50;99.90
59301;DHT22;45073;52.740;6.784;2023-04-24T04:54:16;9.50;99.90
59301;DHT22;45073;52.740;6.784;2023-04-24T04:56:42;9.50;99.90
59301;DHT22;45073;52.740;6.784;2023-04-24T04:59:07;9.50;99.90
59301;DHT22;45073;52.740;6.784;2023-04-24T05:01:33;9.50;99.90
59301;DHT22;45073;52.740;6.784;2023-04-24T05:03:58;9.50;99.90
59301;DHT22;45073;52.740;6.784;2023-04-24T05:06:24;9.50;99.90
59301;DHT22;45073;52.740;6.784;2023-04-24T05:08:50;9.60;99.90
59301;DHT22;45073;52.740;6.784;2023-04-24T05:11:16;9.60;99.90
59301;DHT22;45073;52.740;6.784;2023-04-24T05:13:42;9.60;99.90
59301;DHT22;45073;52.740;6.784;2023-04-24T05:16:08;9.60;99.90
59301;DHT22;45073;52.740;6.784;2023-04-24T05:18:33;9.60;99.90
59301;DHT22;45073;52.740;6.784;2023-04-24T05:20:59;9.60;99.90
59301;DHT22;45073;52.740;6.784;2023-04-24T05:23:25;9.60;99.90
59301;DHT22;45073;52.740;6.784;2023-04-24T05:25:51;9.60;99.90
59301;DHT22;45073;52.740;6.784;2023-04-24T05:28:16;9.60;99.90
59301;DHT22;45073;52.740;6.784;2023-04-24T05:30:42;9.60;99.90
59301;DHT22;45073;52.740;6.784;2023-04-24T05:33:07;9.60;99.90
59301;DHT22;45073;52.740;6.784;2023-04-24T05:35:34;9.60;99.90
59301;DHT22;45073;52.740;6.784;2023-04-24T05:38:00;9.60;99.90
59301;DHT22;45073;52.740;6.784;2023-04-24T05:40:25;9.60;99.90
59301;DHT22;45073;52.740;6.784;2023-04-24T05:42:51;9.60;99.90
59301;DHT22;45073;52.740;6.784;2023-04-24T05:45:16;9.60;99.90
59301;DHT22;45073;52.740;6.784;2023-04-24T05:47:43;9.60;99.90
59301;DHT22;45073;52.740;6.784;2023-04-24T05:50:10;9.50;99.90
59301;DHT22;45073;52.740;6.784;2023-04-24T05:52:35;9.50;99.90
59301;DHT22;45073;52.740;6.784;2023-04-24T05:55:01;9.50;99.90
59301;DHT22;45073;52.740;6.784;2023-04-24T05:57:27;9.60;99.90
59301;DHT22;45073;52.740;6.784;2023-04-24T05:59:52;9.50;99.90
59301;DHT22;45073;52.740;6.784;2023-04-24T06:02:18;9.50;99.90
59301;DHT22;45073;52.740;6.784;2023-04-24T06:04:44;9.50;99.90
59301;DHT22;45073;52.740;6.784;2023-04-24T06:07:11;9.50;99.90
59301;DHT22;45073;52.740;6.784;2023-04-24T06:09:36;9.50;99.90
59301;DHT22;45073;52.740;6.784;2023-04-24T06:12:02;9.50;99.90
59301;DHT22;45073;52.740;6.784;2023-04-24T06:14:28;9.50;99.90
59301;DHT22;45073;52.740;6.784;2023-04-24T06:16:54;9.50;99.90
59301;DHT22;45073;52.740;6.784;2023-04-24T06:19:20;9.50;99.90
59301;DHT22;45073;52.740;6.784;2023-04-24T06:21:45;9.50;99.90
59301;DHT22;45073;52.740;6.784;2023-04-24T06:24:14;9.50;99.90
59301;DHT22;45073;52.740;6.784;2023-04-24T06:26:41;9.40;99.90
59301;DHT22;45073;52.740;6.784;2023-04-24T06:29:07;9.40;99.90
59301;DHT22;45073;52.740;6.784;2023-04-24T06:31:33;9.40;99.90
59301;DHT22;45073;52.740;6.784;2023-04-24T06:34:03;9.40;99.90
59301;DHT22;45073;52.740;6.784;2023-04-24T06:36:29;9.30;99.90
59301;DHT22;45073;52.740;6.784;2023-04-24T06:38:56;9.30;99.90
59301;DHT22;45073;52.740;6.784;2023-04-24T06:41:22;9.30;99.90
59301;DHT22;45073;52.740;6.784;2023-04-24T06:43:48;9.30;99.90
59301;DHT22;45073;52.740;6.784;2023-04-24T06:46:13;9.30;99.90
59301;DHT22;45073;52.740;6.784;2023-04-24T06:48:39;9.30;99.90
59301;DHT22;45073;52.740;6.784;2023-04-24T06:51:05;9.30;99.90
59301;DHT22;45073;52.740;6.784;2023-04-24T06:53:31;9.30;99.90
59301;DHT22;45073;52.740;6.784;2023-04-24T06:58:42;9.30;99.90
59301;DHT22;45073;52.740;6.784;2023-04-24T07:01:09;9.20;99.90
59301;DHT22;45073;52.740;6.784;2023-04-24T07:03:35;9.20;99.90
59301;DHT22;45073;52.740;6.784;2023-04-24T07:06:00;9.20;99.90
59301;DHT22;45073;52.740;6.784;2023-04-24T07:08:26;9.20;99.90
59301;DHT22;45073;52.740;6.784;2023-04-24T07:10:52;9.20;99.90
59301;DHT22;45073;52.740;6.784;2023-04-24T07:13:17;9.20;99.90
59301;DHT22;45073;52.740;6.784;2023-04-24T07:15:43;9.20;99.90
59301;DHT22;45073;52.740;6.784;2023-04-24T07:18:09;9.30;99.90
59301;DHT22;45073;52.740;6.784;2023-04-24T07:20:35;9.30;99.90
59301;DHT22;45073;52.740;6.784;2023-04-24T07:23:02;9.40;99.90
59301;DHT22;45073;52.740;6.784;2023-04-24T07:25:27;9.50;99.90
59301;DHT22;45073;52.740;6.784;2023-04-24T07:27:53;9.60;99.90
59301;DHT22;45073;52.740;6.784;2023-04-24T07:30:18;9.60;99.90
59301;DHT22;45073;52.740;6.784;2023-04-24T07:32:44;9.70;99.90
59301;DHT22;45073;52.740;6.784;2023-04-24T07:35:10;9.70;99.90
59301;DHT22;45073;52.740;6.784;2023-04-24T07:37:36;9.80;99.90
59301;DHT22;45073;52.740;6.784;2023-04-24T07:40:01;9.80;99.90
59301;DHT22;45073;52.740;6.784;2023-04-24T07:42:28;9.80;99.90
59301;DHT22;45073;52.740;6.784;2023-04-24T07:44:55;9.90;99.90
59301;DHT22;45073;52.740;6.784;2023-04-24T07:47:21;9.90;99.90
59301;DHT22;45073;52.740;6.784;2023-04-24T07:49:47;9.90;99.90
59301;DHT22;45073;52.740;6.784;2023-04-24T07:52:12;10.00;99.90
59301;DHT22;45073;52.740;6.784;2023-04-24T07:54:38;10.00;99.90
59301;DHT22;45073;52.740;6.784;2023-04-24T07:57:04;10.00;99.90
59301;DHT22;45073;52.740;6.784;2023-04-24T07:59:31;10.00;99.90
59301;DHT22;45073;52.740;6.784;2023-04-24T08:01:57;10.00;99.90
59301;DHT22;45073;52.740;6.784;2023-04-24T08:04:23;10.00;99.90
59301;DHT22;45073;52.740;6.784;2023-04-24T08:06:48;10.10;99.90
59301;DHT22;45073;52.740;6.784;2023-04-24T08:09:14;10.10;99.90
59301;DHT22;45073;52.740;6.784;2023-04-24T08:11:39;10.10;99.90
59301;DHT22;45073;52.740;6.784;2023-04-24T08:14:05;10.10;99.90
59301;DHT22;45073;52.740;6.784;2023-04-24T08:16:32;10.10;99.90
59301;DHT22;45073;52.740;6.784;2023-04-24T08:18:58;10.10;99.90
59301;DHT22;45073;52.740;6.784;2023-04-24T08:21:24;10.20;99.90
59301;DHT22;45073;52.740;6.784;2023-04-24T08:23:50;10.20;99.90
59301;DHT22;45073;52.740;6.784;2023-04-24T08:26:16;10.20;99.90
59301;DHT22;45073;52.740;6.784;2023-04-24T08:28:42;10.20;99.90
59301;DHT22;45073;52.740;6.784;2023-04-24T08:31:07;10.30;99.90
59301;DHT22;45073;52.740;6.784;2023-04-24T08:33:33;10.30;99.90
59301;DHT22;45073;52.740;6.784;2023-04-24T08:36:02;10.40;99.90
59301;DHT22;45073;52.740;6.784;2023-04-24T08:38:28;10.40;99.90
59301;DHT22;45073;52.740;6.784;2023-04-24T08:40:55;10.40;99.90
59301;DHT22;45073;52.740;6.784;2023-04-24T08:43:22;10.50;99.90
59301;DHT22;45073;52.740;6.784;2023-04-24T08:45:48;10.50;99.90
59301;DHT22;45073;52.740;6.784;2023-04-24T08:48:14;10.50;99.90
59301;DHT22;45073;52.740;6.784;2023-04-24T08:50:40;10.50;99.90
59301;DHT22;45073;52.740;6.784;2023-04-24T08:53:08;10.60;99.90
59301;DHT22;45073;52.740;6.784;2023-04-24T08:55:34;10.50;99.90
59301;DHT22;45073;52.740;6.784;2023-04-24T08:58:01;10.50;99.90
59301;DHT22;45073;52.740;6.784;2023-04-24T09:00:28;10.60;99.90
59301;DHT22;45073;52.740;6.784;2023-04-24T09:02:53;10.50;99.90
59301;DHT22;45073;52.740;6.784;2023-04-24T09:05:21;10.50;99.90
59301;DHT22;45073;52.740;6.784;2023-04-24T09:07:53;10.50;99.90
59301;DHT22;45073;52.740;6.784;2023-04-24T09:10:20;10.60;99.90
59301;DHT22;45073;52.740;6.784;2023-04-24T09:12:46;10.60;99.90
59301;DHT22;45073;52.740;6.784;2023-04-24T09:15:12;10.60;99.90
59301;DHT22;45073;52.740;6.784;2023-04-24T09:17:38;10.60;99.90
59301;DHT22;45073;52.740;6.784;2023-04-24T09:20:04;10.60;99.90
59301;DHT22;45073;52.740;6.784;2023-04-24T09:22:31;10.60;99.90
59301;DHT22;45073;52.740;6.784;2023-04-24T09:25:03;10.60;99.90
59301;DHT22;45073;52.740;6.784;2023-04-24T09:27:29;10.70;99.90
59301;DHT22;45073;52.740;6.784;2023-04-24T09:29:56;10.70;99.90
59301;DHT22;45073;52.740;6.784;2023-04-24T09:32:23;10.70;99.90
59301;DHT22;45073;52.740;6.784;2023-04-24T09:35:07;10.60;99.90
59301;DHT22;45073;52.740;6.784;2023-04-24T09:37:40;10.50;99.90
59301;DHT22;45073;52.740;6.784;2023-04-24T09:40:16;10.50;99.90
59301;DHT22;45073;52.740;6.784;2023-04-24T09:42:55;10.50;99.90
59301;DHT22;45073;52.740;6.784;2023-04-24T09:45:27;10.50;99.90
59301;DHT22;45073;52.740;6.784;2023-04-24T09:47:52;10.40;99.90
59301;DHT22;45073;52.740;6.784;2023-04-24T09:50:21;10.50;99.90
59301;DHT22;45073;52.740;6.784;2023-04-24T09:52:57;10.50;99.90
59301;DHT22;45073;52.740;6.784;2023-04-24T09:55:24;10.50;99.90
59301;DHT22;45073;52.740;6.784;2023-04-24T09:57:55;10.40;99.90
59301;DHT22;45073;52.740;6.784;2023-04-24T10:00:23;10.40;99.90
59301;DHT22;45073;52.740;6.784;2023-04-24T10:02:51;10.40;99.90
59301;DHT22;45073;52.740;6.784;2023-04-24T10:05:17;10.40;99.90
59301;DHT22;45073;52.740;6.784;2023-04-24T10:07:43;10.30;99.90
59301;DHT22;45073;52.740;6.784;2023-04-24T10:10:09;10.40;99.90
59301;DHT22;45073;52.740;6.784;2023-04-24T10:12:36;10.40;99.90
59301;DHT22;45073;52.740;6.784;2023-04-24T10:15:02;10.30;99.90
59301;DHT22;45073;52.740;6.784;2023-04-24T10:17:29;10.20;99.90
59301;DHT22;45073;52.740;6.784;2023-04-24T10:19:55;10.20;99.90
59301;DHT22;45073;52.740;6.784;2023-04-24T10:22:21;10.10;99.90
59301;DHT22;45073;52.740;6.784;2023-04-24T10:24:49;10.10;99.90
59301;DHT22;45073;52.740;6.784;2023-04-24T10:27:16;10.10;99.90
59301;DHT22;45073;52.740;6.784;2023-04-24T10:29:43;10.10;99.90
59301;DHT22;45073;52.740;6.784;2023-04-24T10:32:09;10.10;99.90
59301;DHT22;45073;52.740;6.784;2023-04-24T10:34:35;10.20;99.90
59301;DHT22;45073;52.740;6.784;2023-04-24T10:37:02;10.20;99.90
59301;DHT22;45073;52.740;6.784;2023-04-24T10:39:28;10.20;99.90
59301;DHT22;45073;52.740;6.784;2023-04-24T10:41:55;10.20;99.90
59301;DHT22;45073;52.740;6.784;2023-04-24T10:44:23;10.20;99.90
59301;DHT22;45073;52.740;6.784;2023-04-24T10:46:54;10.20;99.90
59301;DHT22;45073;52.740;6.784;2023-04-24T10:49:30;10.10;99.90
59301;DHT22;45073;52.740;6.784;2023-04-24T10:52:01;10.10;99.90
59301;DHT22;45073;52.740;6.784;2023-04-24T10:54:41;10.00;99.90
59301;DHT22;45073;52.740;6.784;2023-04-24T10:57:26;9.80;99.90
59301;DHT22;45073;52.740;6.784;2023-04-24T11:00:14;9.70;99.90
59301;DHT22;45073;52.740;6.784;2023-04-24T11:02:40;9.70;99.90
59301;DHT22;45073;52.740;6.784;2023-04-24T11:05:09;9.70;99.90
59301;DHT22;45073;52.740;6.784;2023-04-24T11:08:09;9.70;99.90
59301;DHT22;45073;52.740;6.784;2023-04-24T11:10:43;9.70;99.90
59301;DHT22;45073;52.740;6.784;2023-04-24T11:13:09;9.70;99.90
59301;DHT22;45073;52.740;6.784;2023-04-24T11:15:35;9.70;99.90
59301;DHT22;45073;52.740;6.784;2023-04-24T11:18:01;9.70;99.90
59301;DHT22;45073;52.740;6.784;2023-04-24T11:20:27;9.80;99.90
59301;DHT22;45073;52.740;6.784;2023-04-24T11:22:54;9.80;99.90
59301;DHT22;45073;52.740;6.784;2023-04-24T11:25:21;9.80;99.90
59301;DHT22;45073;52.740;6.784;2023-04-24T11:27:51;9.80;99.90
59301;DHT22;45073;52.740;6.784;2023-04-24T11:30:29;9.80;99.90
59301;DHT22;45073;52.740;6.784;2023-04-24T11:33:04;9.70;99.90
59301;DHT22;45073;52.740;6.784;2023-04-24T11:35:35;9.70;99.90
59301;DHT22;45073;52.740;6.784;2023-04-24T11:38:03;9.70;99.90
59301;DHT22;45073;52.740;6.784;2023-04-24T11:40:29;9.70;99.90
59301;DHT22;45073;52.740;6.784;2023-04-24T11:42:55;9.70;99.90
59301;DHT22;45073;52.740;6.784;2023-04-24T11:45:26;9.70;99.90
59301;DHT22;45073;52.740;6.784;2023-04-24T11:47:52;9.80;99.90
59301;DHT22;45073;52.740;6.784;2023-04-24T11:50:21;9.80;99.90
59301;DHT22;45073;52.740;6.784;2023-04-24T11:52:49;9.80;99.90
59301;DHT22;45073;52.740;6.784;2023-04-24T11:57:47;9.80;99.90
59301;DHT22;45073;52.740;6.784;2023-04-24T12:00:21;9.90;99.90
59301;DHT22;45073;52.740;6.784;2023-04-24T12:02:48;9.90;99.90
59301;DHT22;45073;52.740;6.784;2023-04-24T12:05:25;9.90;99.90
59301;DHT22;45073;52.740;6.784;2023-04-24T12:07:52;9.90;99.90
59301;DHT22;45073;52.740;6.784;2023-04-24T12:10:26;10.00;99.90
59301;DHT22;45073;52.740;6.784;2023-04-24T12:12:53;10.00;99.90
59301;DHT22;45073;52.740;6.784;2023-04-24T12:15:19;10.00;99.90
59301;DHT22;45073;52.740;6.784;2023-04-24T12:17:45;10.00;99.90
59301;DHT22;45073;52.740;6.784;2023-04-24T12:20:12;10.00;99.90
59301;DHT22;45073;52.740;6.784;2023-04-24T12:22:45;9.90;99.90
59301;DHT22;45073;52.740;6.784;2023-04-24T12:25:11;9.90;99.90
59301;DHT22;45073;52.740;6.784;2023-04-24T12:27:37;9.90;99.90
59301;DHT22;45073;52.740;6.784;2023-04-24T12:30:05;9.90;99.90
59301;DHT22;45073;52.740;6.784;2023-04-24T12:32:31;9.90;99.90
59301;DHT22;45073;52.740;6.784;2023-04-24T12:34:57;9.80;99.90
59301;DHT22;45073;52.740;6.784;2023-04-24T12:37:24;9.80;99.90
59301;DHT22;45073;52.740;6.784;2023-04-24T12:40:07;9.80;99.90
59301;DHT22;45073;52.740;6.784;2023-04-24T12:42:34;9.80;99.90
59301;DHT22;45073;52.740;6.784;2023-04-24T12:45:05;9.80;99.90
59301;DHT22;45073;52.740;6.784;2023-04-24T12:47:32;9.80;99.90
59301;DHT22;45073;52.740;6.784;2023-04-24T12:49:58;9.80;99.90
59301;DHT22;45073;52.740;6.784;2023-04-24T12:52:25;9.80;99.90
59301;DHT22;45073;52.740;6.784;2023-04-24T12:54:53;9.70;99.90
59301;DHT22;45073;52.740;6.784;2023-04-24T12:57:20;9.70;99.90
59301;DHT22;45073;52.740;6.784;2023-04-24T12:59:45;9.70;99.90
59301;DHT22;45073;52.740;6.784;2023-04-24T13:02:11;9.60;99.90
59301;DHT22;45073;52.740;6.784;2023-04-24T13:04:37;9.60;99.90
59301;DHT22;45073;52.740;6.784;2023-04-24T13:07:03;9.50;99.90
59301;DHT22;45073;52.740;6.784;2023-04-24T13:09:29;9.60;99.90
59301;DHT22;45073;52.740;6.784;2023-04-24T13:11:55;9.60;99.90
59301;DHT22;45073;52.740;6.784;2023-04-24T13:14:22;9.70;99.90
59301;DHT22;45073;52.740;6.784;2023-04-24T13:16:48;9.70;99.90
59301;DHT22;45073;52.740;6.784;2023-04-24T13:19:13;9.80;99.90
59301;DHT22;45073;52.740;6.784;2023-04-24T13:21:39;9.90;99.90
59301;DHT22;45073;52.740;6.784;2023-04-24T13:24:05;9.90;99.90
59301;DHT22;45073;52.740;6.784;2023-04-24T13:26:33;9.80;99.90
59301;DHT22;45073;52.740;6.784;2023-04-24T13:28:58;9.80;99.90
59301;DHT22;45073;52.740;6.784;2023-04-24T13:31:24;9.70;99.90
59301;DHT22;45073;52.740;6.784;2023-04-24T13:33:50;9.70;99.90
59301;DHT22;45073;52.740;6.784;2023-04-24T13:36:16;9.60;99.90
59301;DHT22;45073;52.740;6.784;2023-04-24T13:38:46;9.50;99.90
59301;DHT22;45073;52.740;6.784;2023-04-24T13:41:11;9.60;99.90
59301;DHT22;45073;52.740;6.784;2023-04-24T13:43:37;9.50;99.90
59301;DHT22;45073;52.740;6.784;2023-04-24T13:46:02;9.60;99.90
59301;DHT22;45073;52.740;6.784;2023-04-24T13:48:29;9.60;99.90
59301;DHT22;45073;52.740;6.784;2023-04-24T13:50:55;9.60;99.90
59301;DHT22;45073;52.740;6.784;2023-04-24T13:53:21;9.50;99.90
59301;DHT22;45073;52.740;6.784;2023-04-24T13:55:47;9.50;99.90
59301;DHT22;45073;52.740;6.784;2023-04-24T13:58:12;9.50;99.90
59301;DHT22;45073;52.740;6.784;2023-04-24T14:00:39;9.50;99.90
59301;DHT22;45073;52.740;6.784;2023-04-24T14:03:04;9.50;99.90
59301;DHT22;45073;52.740;6.784;2023-04-24T14:05:30;9.50;99.90
59301;DHT22;45073;52.740;6.784;2023-04-24T14:07:56;9.50;99.90
59301;DHT22;45073;52.740;6.784;2023-04-24T14:10:22;9.50;99.90
59301;DHT22;45073;52.740;6.784;2023-04-24T14:12:47;9.50;99.90
59301;DHT22;45073;52.740;6.784;2023-04-24T14:15:13;9.50;99.90
59301;DHT22;45073;52.740;6.784;2023-04-24T14:17:39;9.40;99.90
59301;DHT22;45073;52.740;6.784;2023-04-24T14:20:06;9.40;99.90
59301;DHT22;45073;52.740;6.784;2023-04-24T14:22:32;9.40;99.90
59301;DHT22;45073;52.740;6.784;2023-04-24T14:24:58;9.30;99.90
59301;DHT22;45073;52.740;6.784;2023-04-24T14:27:24;9.30;99.90
59301;DHT22;45073;52.740;6.784;2023-04-24T14:29:52;9.20;99.90
59301;DHT22;45073;52.740;6.784;2023-04-24T14:32:17;9.10;99.90
59301;DHT22;45073;52.740;6.784;2023-04-24T14:34:43;9.10;99.90
59301;DHT22;45073;52.740;6.784;2023-04-24T14:37:09;9.00;99.90
59301;DHT22;45073;52.740;6.784;2023-04-24T14:39:34;8.90;99.90
59301;DHT22;45073;52.740;6.784;2023-04-24T14:42:00;8.90;99.90
59301;DHT22;45073;52.740;6.784;2023-04-24T14:44:26;8.90;99.90
59301;DHT22;45073;52.740;6.784;2023-04-24T14:46:52;8.90;99.90
59301;DHT22;45073;52.740;6.784;2023-04-24T14:49:18;9.00;99.90
59301;DHT22;45073;52.740;6.784;2023-04-24T14:51:44;9.00;99.90
59301;DHT22;45073;52.740;6.784;2023-04-24T14:54:10;9.00;99.90
59301;DHT22;45073;52.740;6.784;2023-04-24T14:56:35;9.00;99.90
59301;DHT22;45073;52.740;6.784;2023-04-24T14:59:01;9.00;99.90
59301;DHT22;45073;52.740;6.784;2023-04-24T15:01:27;9.10;99.90
59301;DHT22;45073;52.740;6.784;2023-04-24T15:03:53;9.20;99.90
59301;DHT22;45073;52.740;6.784;2023-04-24T15:06:18;9.40;99.90
59301;DHT22;45073;52.740;6.784;2023-04-24T15:08:45;9.50;99.90
59301;DHT22;45073;52.740;6.784;2023-04-24T15:11:11;9.50;99.90
59301;DHT22;45073;52.740;6.784;2023-04-24T15:13:37;9.50;99.90
59301;DHT22;45073;52.740;6.784;2023-04-24T15:16:03;9.60;99.90
59301;DHT22;45073;52.740;6.784;2023-04-24T15:18:28;9.50;99.90
59301;DHT22;45073;52.740;6.784;2023-04-24T15:20:55;9.40;99.90
59301;DHT22;45073;52.740;6.784;2023-04-24T15:23:21;9.40;99.90
59301;DHT22;45073;52.740;6.784;2023-04-24T15:25:47;9.40;99.90
59301;DHT22;45073;52.740;6.784;2023-04-24T15:28:13;9.40;99.90
59301;DHT22;45073;52.740;6.784;2023-04-24T15:30:39;9.40;99.90
59301;DHT22;45073;52.740;6.784;2023-04-24T15:33:04;9.40;99.90
59301;DHT22;45073;52.740;6.784;2023-04-24T15:35:30;9.40;99.90
59301;DHT22;45073;52.740;6.784;2023-04-24T15:37:56;9.40;99.90
59301;DHT22;45073;52.740;6.784;2023-04-24T15:40:22;9.40;99.90
59301;DHT22;45073;52.740;6.784;2023-04-24T15:42:48;9.50;99.90
59301;DHT22;45073;52.740;6.784;2023-04-24T15:45:13;9.50;99.90